PHE weather

Port Hedland International Airport
Port Hedland, Western Australia, Australia

Public forecast

Using degrees Celsius for public forecast. Weather courtesy of forecast.io.

Current aviation weather report (METAR) for Port Hedland International Airport

Retrieved 2020/02/23 11:00 UTC (32 minutes ago):

YPPD 231100Z AUTO 30010KT 9999 // NCD 30/23 Q1007

Aviation forecast (TAF) for Port Hedland International Airport

Retrieved 2020/02/23 06:36 UTC (5 hours ago):

TAF YPPD 230506Z 2306/2406 27010KT CAVOK FM231600 24008KT 9999 FEW015 FM240100 30010KT CAVOK